Time;durP1;ratioP1;P1;durP2;ratioP2;P2;SDS_P1;SDS_P2;PMS_P1;PMS_P2;Temp;Humidity;BMP_temperature;BMP_pressure;BME280_temperature;BME280_humidity;BME280_pressure;Samples;Min_cycle;Max_cycle;Signal;HPM_P1;HPM_P2
2023/09/23 00:01:10;;;;;;;2.58;1.17;;;9.10;99.90;;;;;;25589717;23;20048;-62
2023/09/23 00:11:12;;;;;;;3.65;1.35;;;9.00;99.90;;;;;;25589384;23;20005;-62
2023/09/23 00:21:14;;;;;;;5.60;1.67;;;9.10;99.90;;;;;;25332147;23;20060;-54
2023/09/23 00:31:16;;;;;;;4.57;1.27;;;9.00;99.90;;;;;;25332133;23;20080;-56
2023/09/23 00:41:18;;;;;;;4.15;1.08;;;9.00;99.90;;;;;;25332167;23;20469;-62
2023/09/23 00:51:21;;;;;;;4.60;1.42;;;8.90;99.90;;;;;;25440154;23;20088;-56
2023/09/23 01:01:22;;;;;;;5.85;1.40;;;8.90;99.90;;;;;;25473079;23;20009;-56
2023/09/23 01:11:26;;;;;;;5.93;1.67;;;8.80;99.90;;;;;;25446603;23;20020;-56
2023/09/23 01:21:28;;;;;;;3.80;1.20;;;8.70;99.90;;;;;;25472105;23;20381;-53
2023/09/23 01:31:35;;;;;;;4.63;1.25;;;8.60;99.90;;;;;;25522671;23;20091;-56
2023/09/23 01:41:37;;;;;;;6.63;0.90;;;8.50;99.90;;;;;;25594275;23;20047;-61
2023/09/23 01:51:39;;;;;;;5.47;1.13;;;8.40;99.90;;;;;;25594406;23;20060;-56
2023/09/23 02:01:43;;;;;;;4.53;0.90;;;8.30;99.90;;;;;;25592438;23;20009;-56
2023/09/23 02:11:45;;;;;;;4.72;1.20;;;8.50;99.90;;;;;;25592060;23;20009;-56
2023/09/23 02:21:51;;;;;;;5.57;1.17;;;8.30;99.90;;;;;;25593380;23;20407;-54
2023/09/23 02:31:55;;;;;;;4.38;1.30;;;8.10;99.90;;;;;;25615280;23;20337;-52
2023/09/23 02:41:57;;;;;;;5.38;1.50;;;8.00;99.90;;;;;;25592361;23;20016;-56
2023/09/23 02:51:58;;;;;;;4.68;0.90;;;7.90;99.90;;;;;;25592134;23;20436;-55
2023/09/23 03:02:00;;;;;;;4.57;0.88;;;7.70;99.90;;;;;;25591561;23;20009;-53
2023/09/23 03:12:03;;;;;;;3.85;0.93;;;7.80;99.90;;;;;;25564445;23;20017;-61
2023/09/23 03:22:05;;;;;;;6.30;0.80;;;7.80;99.90;;;;;;25589145;23;20085;-61
2023/09/23 03:32:07;;;;;;;4.82;1.08;;;7.60;99.90;;;;;;25589491;23;20445;-61
2023/09/23 03:42:11;;;;;;;4.78;0.98;;;7.60;99.90;;;;;;25587794;23;20009;-55
2023/09/23 03:52:14;;;;;;;4.72;1.27;;;7.50;99.90;;;;;;25587327;23;20009;-60
2023/09/23 04:02:15;;;;;;;3.50;1.00;;;7.40;99.90;;;;;;25589011;23;20009;-55
2023/09/23 04:12:18;;;;;;;5.45;1.00;;;7.40;99.90;;;;;;25586397;23;20735;-55
2023/09/23 04:22:20;;;;;;;4.40;1.00;;;7.40;99.90;;;;;;25588126;23;20013;-60
2023/09/23 04:32:22;;;;;;;3.50;0.85;;;7.30;99.90;;;;;;25596032;23;20017;-60
2023/09/23 04:42:23;;;;;;;2.80;0.70;;;7.30;99.90;;;;;;25569816;23;20016;-61
2023/09/23 04:52:28;;;;;;;5.30;1.38;;;7.00;99.90;;;;;;25595770;23;20012;-60
2023/09/23 05:02:30;;;;;;;4.78;1.00;;;7.00;99.90;;;;;;25594937;23;20002;-60
2023/09/23 05:12:32;;;;;;;7.15;1.33;;;7.10;99.90;;;;;;25594571;23;20005;-54
2023/09/23 05:22:34;;;;;;;5.85;1.27;;;7.20;99.90;;;;;;25594684;23;20016;-54
2023/09/23 05:32:39;;;;;;;4.35;0.75;;;7.30;99.90;;;;;;25590280;23;20017;-60
2023/09/23 05:42:41;;;;;;;6.80;1.00;;;7.30;99.90;;;;;;25587718;23;20333;-58
2023/09/23 05:52:45;;;;;;;3.70;1.10;;;7.40;99.90;;;;;;25586720;23;20009;-61
2023/09/23 06:02:47;;;;;;;6.78;1.20;;;7.40;99.90;;;;;;25586391;23;20012;-55
2023/09/23 06:12:49;;;;;;;5.70;1.23;;;7.60;99.90;;;;;;25586218;23;20005;-55
2023/09/23 06:22:51;;;;;;;12.30;1.20;;;7.80;99.90;;;;;;25585812;23;20001;-60
2023/09/23 06:32:53;;;;;;;3.35;0.80;;;8.10;99.90;;;;;;25530436;23;1363605;-60
2023/09/23 06:42:55;;;;;;;1.65;0.80;;;8.40;99.90;;;;;;25591446;23;20001;-56
2023/09/23 06:52:57;;;;;;;6.60;1.48;;;8.50;99.90;;;;;;25589937;23;20001;-54
2023/09/23 07:02:59;;;;;;;3.08;0.60;;;9.10;99.90;;;;;;25590381;23;20507;-61
2023/09/23 07:13:03;;;;;;;5.03;1.00;;;10.10;99.90;;;;;;25590255;23;20005;-57
2023/09/23 07:23:06;;;;;;;4.28;0.98;;;11.20;99.90;;;;;;25589843;23;20005;-62
2023/09/23 07:33:07;;;;;;;8.57;2.28;;;12.20;99.90;;;;;;25588789;23;20448;-57
2023/09/23 07:43:09;;;;;;;4.47;0.80;;;13.20;99.90;;;;;;25588632;23;20028;-63
2023/09/23 07:53:11;;;;;;;3.50;0.82;;;13.80;99.90;;;;;;25588561;23;20448;-55
2023/09/23 08:03:13;;;;;;;4.38;0.88;;;14.70;99.90;;;;;;25588505;23;20067;-57
2023/09/23 08:13:14;;;;;;;5.50;1.10;;;14.70;99.90;;;;;;25588485;23;20121;-54
2023/09/23 08:23:17;;;;;;;4.00;1.15;;;15.70;99.90;;;;;;25588154;23;20008;-62
2023/09/23 08:33:19;;;;;;;3.85;0.95;;;15.60;99.90;;;;;;25588508;23;20079;-61
2023/09/23 08:43:36;;;;;;;5.40;1.50;;;15.20;99.90;;;;;;25587252;23;20343;-61
2023/09/23 08:53:39;;;;;;;3.15;0.82;;;15.50;99.90;;;;;;25628760;23;20005;-60
2023/09/23 09:03:41;;;;;;;4.32;0.75;;;15.70;99.90;;;;;;25587012;23;20001;-60
2023/09/23 09:13:43;;;;;;;3.50;0.50;;;15.80;99.90;;;;;;25590389;23;20005;-61
2023/09/23 09:23:45;;;;;;;2.95;0.77;;;15.80;99.90;;;;;;25594332;23;20005;-61
2023/09/23 09:33:47;;;;;;;2.15;0.32;;;16.40;99.90;;;;;;25594258;23;20095;-55
2023/09/23 09:43:49;;;;;;;2.10;0.40;;;17.40;99.90;;;;;;25593719;23;20411;-60
2023/09/23 09:53:51;;;;;;;4.47;0.70;;;18.40;99.90;;;;;;25567090;23;20009;-59
2023/09/23 10:03:53;;;;;;;2.28;0.50;;;17.90;99.90;;;;;;25592916;23;20005;-61
2023/09/23 10:13:55;;;;;;;1.50;0.45;;;18.20;99.90;;;;;;25590945;23;20376;-62
2023/09/23 10:24:00;;;;;;;3.47;0.60;;;18.90;99.90;;;;;;25590436;23;20005;-61
2023/09/23 10:34:10;;;;;;;2.33;0.60;;;19.20;99.90;;;;;;25592055;23;20447;-61
2023/09/23 10:44:12;;;;;;;1.15;0.50;;;18.70;99.90;;;;;;25632370;23;20080;-61
2023/09/23 10:54:14;;;;;;;2.38;0.40;;;19.10;99.90;;;;;;25591002;23;20005;-61
2023/09/23 11:04:19;;;;;;;1.95;0.57;;;19.50;99.90;;;;;;25590756;23;20009;-61
2023/09/23 11:14:21;;;;;;;0.80;0.40;;;19.60;99.90;;;;;;25590502;23;20005;-61
2023/09/23 11:24:23;;;;;;;1.38;0.38;;;19.70;99.40;;;;;;25589957;23;20379;-61
2023/09/23 11:34:25;;;;;;;1.98;0.38;;;20.00;96.50;;;;;;25587807;23;20013;-61
2023/09/23 11:44:27;;;;;;;1.27;0.40;;;20.50;96.90;;;;;;25589211;23;20005;-62
2023/09/23 11:54:28;;;;;;;1.58;0.40;;;20.60;93.80;;;;;;25589039;23;20009;-65
2023/09/23 12:04:30;;;;;;;1.40;0.47;;;19.70;96.90;;;;;;25589187;23;20013;-64
2023/09/23 12:14:32;;;;;;;2.17;0.40;;;18.50;96.70;;;;;;25588693;23;20024;-64
2023/09/23 12:24:34;;;;;;;1.42;0.70;;;17.80;96.20;;;;;;25588292;23;20056;-64
2023/09/23 12:34:36;;;;;;;1.40;0.57;;;18.60;99.70;;;;;;25587744;23;20013;-63
2023/09/23 12:44:37;;;;;;;1.77;0.50;;;19.80;99.90;;;;;;25589837;23;20387;-63
2023/09/23 12:54:39;;;;;;;1.73;0.60;;;21.30;99.90;;;;;;25593947;23;20437;-63
2023/09/23 13:04:41;;;;;;;1.80;0.60;;;21.60;98.90;;;;;;25594525;23;20001;-67
2023/09/23 13:14:43;;;;;;;3.85;0.70;;;20.70;96.50;;;;;;25215757;23;20509;-53
2023/09/23 13:24:45;;;;;;;1.65;0.45;;;20.50;99.90;;;;;;25215723;23;20026;-64
2023/09/23 13:34:48;;;;;;;2.75;0.45;;;21.20;98.80;;;;;;25215427;23;20037;-64
2023/09/23 13:44:50;;;;;;;2.95;0.80;;;20.80;97.30;;;;;;25416748;23;20013;-63
2023/09/23 13:54:53;;;;;;;1.00;0.40;;;20.00;98.30;;;;;;25469657;23;20013;-65
2023/09/23 14:04:54;;;;;;;2.55;0.50;;;19.10;99.90;;;;;;25469819;23;20444;-64
2023/09/23 14:14:56;;;;;;;2.88;0.70;;;18.50;99.90;;;;;;25469034;23;20006;-64
2023/09/23 14:24:58;;;;;;;1.58;0.60;;;18.10;99.90;;;;;;25466740;23;20080;-64
2023/09/23 14:35:00;;;;;;;2.78;1.00;;;17.90;99.90;;;;;;25561601;23;20013;-64
2023/09/23 14:45:03;;;;;;;2.72;0.60;;;17.60;99.90;;;;;;25589463;23;20009;-63
2023/09/23 14:55:06;;;;;;;1.75;0.60;;;17.10;99.90;;;;;;25587225;23;20009;-63
2023/09/23 15:05:09;;;;;;;1.92;0.80;;;16.30;99.90;;;;;;25562728;23;20330;-62
2023/09/23 15:15:11;;;;;;;3.00;1.27;;;16.00;99.90;;;;;;25589699;23;20005;-63
2023/09/23 15:25:12;;;;;;;5.30;0.90;;;15.70;99.90;;;;;;25589994;23;20032;-62
2023/09/23 15:35:16;;;;;;;4.15;2.25;;;15.60;99.90;;;;;;25589608;23;20013;-62
2023/09/23 15:45:18;;;;;;;3.70;1.30;;;14.90;99.90;;;;;;25590527;23;20008;-62
2023/09/23 15:55:22;;;;;;;2.65;1.30;;;14.40;99.90;;;;;;25588996;23;20440;-62
2023/09/23 16:05:23;;;;;;;1.85;0.63;;;14.30;99.90;;;;;;25588255;23;20009;-62
2023/09/23 16:15:25;;;;;;;1.13;0.43;;;14.30;99.90;;;;;;25588082;23;20009;-62
2023/09/23 16:25:29;;;;;;;1.98;1.08;;;14.10;99.90;;;;;;25594870;23;20009;-62
2023/09/23 16:35:31;;;;;;;6.47;4.30;;;13.80;99.90;;;;;;25596544;23;20440;-62
2023/09/23 16:45:33;;;;;;;5.50;3.10;;;13.60;99.90;;;;;;25596442;23;20009;-62
2023/09/23 16:55:35;;;;;;;1.80;0.57;;;13.00;99.90;;;;;;25595837;23;20005;-62
2023/09/23 17:05:36;;;;;;;2.13;1.60;;;12.50;99.90;;;;;;25595862;23;20056;-62
2023/09/23 17:15:39;;;;;;;2.30;0.50;;;12.00;99.90;;;;;;25595329;23;20075;-49
2023/09/23 17:25:48;;;;;;;2.97;1.58;;;11.70;99.90;;;;;;25594864;23;20005;-61
2023/09/23 17:35:59;;;;;;;3.05;1.50;;;11.50;99.90;;;;;;25451425;23;20013;-62
2023/09/23 17:46:04;;;;;;;4.65;1.88;;;11.80;99.90;;;;;;25470577;23;20013;-62
2023/09/23 17:56:05;;;;;;;3.92;0.90;;;11.60;99.90;;;;;;25471984;23;20006;-50
2023/09/23 18:06:07;;;;;;;2.17;1.50;;;11.50;99.90;;;;;;25470535;23;20032;-49
2023/09/23 18:16:09;;;;;;;2.63;0.55;;;11.30;99.90;;;;;;25470161;23;20005;-54
2023/09/23 18:26:13;;;;;;;3.33;1.30;;;11.10;99.90;;;;;;25469997;23;20001;-62
2023/09/23 18:36:15;;;;;;;1.67;0.47;;;11.10;99.90;;;;;;25577345;23;20009;-61
2023/09/23 18:46:19;;;;;;;5.70;2.00;;;11.20;99.90;;;;;;25590242;23;20009;-62
2023/09/23 18:56:21;;;;;;;0.60;0.20;;;11.10;99.90;;;;;;25562084;23;20028;-62
2023/09/23 19:06:23;;;;;;;0.50;0.30;;;11.10;99.90;;;;;;25585269;23;20009;-60
2023/09/23 19:16:24;;;;;;;0.57;0.20;;;11.00;99.90;;;;;;25587598;23;20059;-61
2023/09/23 19:26:27;;;;;;;1.88;0.50;;;10.90;99.90;;;;;;25588601;23;20059;-59
2023/09/23 19:36:33;;;;;;;0.90;0.55;;;10.80;99.90;;;;;;25588576;23;20012;-49
2023/09/23 19:46:35;;;;;;;0.45;0.20;;;10.60;99.90;;;;;;25589119;23;20069;-61
2023/09/23 19:56:36;;;;;;;3.38;0.10;;;10.50;99.90;;;;;;25588252;23;20012;-48
2023/09/23 20:06:40;;;;;;;0.63;0.10;;;10.50;99.90;;;;;;25587255;23;20432;-59
2023/09/23 20:16:43;;;;;;;1.58;0.10;;;10.40;99.90;;;;;;25585763;23;20002;-58
2023/09/23 20:26:47;;;;;;;0.93;0.10;;;10.60;99.90;;;;;;25585953;23;20016;-60
2023/09/23 20:36:50;;;;;;;0.30;0.10;;;10.60;99.90;;;;;;25586067;23;20013;-52
2023/09/23 20:46:51;;;;;;;0.10;0.00;;;10.40;99.90;;;;;;25586485;23;20009;-60
2023/09/23 20:56:53;;;;;;;0.80;0.10;;;10.30;99.90;;;;;;25586434;23;20009;-49
2023/09/23 21:06:55;;;;;;;0.20;0.10;;;9.90;99.90;;;;;;25588257;23;20009;-60
2023/09/23 21:16:57;;;;;;;1.80;0.00;;;10.00;99.90;;;;;;25594112;23;20005;-61
2023/09/23 21:26:59;;;;;;;1.35;0.10;;;9.70;99.90;;;;;;25593299;23;20028;-60
2023/09/23 21:37:01;;;;;;;0.30;0.10;;;9.40;99.90;;;;;;25494417;23;20009;-61
2023/09/23 21:47:03;;;;;;;0.50;0.10;;;9.50;99.90;;;;;;25471227;23;20010;-57
2023/09/23 21:57:05;;;;;;;0.90;0.17;;;9.30;99.90;;;;;;25470373;23;20006;-50
2023/09/23 22:07:08;;;;;;;0.17;0.10;;;9.10;99.90;;;;;;25469796;23;20068;-60
2023/09/23 22:17:13;;;;;;;0.17;0.10;;;9.10;99.90;;;;;;25438275;23;20087;-61
2023/09/23 22:27:18;;;;;;;0.20;0.10;;;8.80;99.90;;;;;;25460080;23;20080;-60
2023/09/23 22:37:20;;;;;;;0.20;0.10;;;8.90;99.90;;;;;;25588743;23;20432;-50
2023/09/23 22:47:22;;;;;;;1.17;0.10;;;9.00;99.90;;;;;;25591613;23;20005;-52
2023/09/23 22:57:24;;;;;;;0.10;0.10;;;8.90;99.90;;;;;;25592009;23;20306;-49
2023/09/23 23:07:26;;;;;;;1.75;0.10;;;8.90;99.90;;;;;;25590384;23;20031;-53
2023/09/23 23:17:29;;;;;;;0.15;0.10;;;8.90;99.90;;;;;;25591439;23;20009;-61
2023/09/23 23:27:31;;;;;;;0.20;0.10;;;9.00;99.90;;;;;;25590428;23;20005;-50
2023/09/23 23:37:35;;;;;;;0.35;0.10;;;9.00;99.90;;;;;;25631627;23;20004;-51
2023/09/23 23:47:39;;;;;;;0.20;0.10;;;8.90;99.90;;;;;;25590113;23;20005;-50
2023/09/23 23:57:41;;;;;;;1.75;0.10;;;8.80;99.90;;;;;;25589655;23;20333;-60
